Walls, MS (38686)

4:08 PM CDT on July 28, 2016 (GMT -0500)
Allen Combined Cycle Plant | | Change Station

Elev 197 ft 35.07 °N, 90.14 °W | Updated 22 seconds ago

Mostly Cloudy
Mostly Cloudy
85.5 °F
Feels Like 97 °F
N
11.0
Wind Variable Wind from SW
Gusts 12.0 mph

Today
High -- | Low -- °F
--% Chance of Precip.
Yesterday
High -- | Low -- °F
Precip. -- in
Pressure 29.91 in
Visibility 10.0 miles
Clouds Scattered Clouds 2000 ft
Mostly Cloudy 25000 ft
Heat Index 97 °F
Dew Point 78 °F
Humidity 78%
Rainfall 1.42 in
Snow Depth Not available.
6:07 AM 8:06 PM
Waning Crescent, 29% visible
METAR KMEM 282054Z 22009G14KT 10SM SCT020 BKN250 31/24 A2992 RMK AO2 SLP128 T03060244 58014
Pressure 29.91 in
Visibility 10.0 miles
Clouds Scattered Clouds 2000 ft
Mostly Cloudy 25000 ft
Heat Index 97 °F
Dew Point 78 °F
Humidity 78%
Rainfall 1.42 in
Snow Depth Not available.
6:07 AM 8:06 PM
Waning Crescent, 29% visible
METAR KMEM 282054Z 22009G14KT 10SM SCT020 BKN250 31/24 A2992 RMK AO2 SLP128 T03060244 58014

10-Day Weather Forecast

Almanac

Astronomy

Jul. 28, 2016 Rise Set
Actual Time
Civil Twilight
Nautical Twilight
Astronomical Twilight
Moon
Length of Visible Light
Length of Day
Tomorrow will be .
, % of the Moon is Illuminated

Today's Extremes

State Highs State Lows

Community

WunderPhotos

Upload Photos

1,928,223 photos uploaded!

WunderBlog® & News

Nearby

Air Quality

  Air Quality AQ Index Pollutant
Not available.

Snow Depth

Station Depth Elevation

Earthquake Activity

City Distance Mag. Time & Date
Minimum magnitude displayed is 2.5.

Coastal Water Temperatures

Place Temperature

Stations

Nearby Weather Stations

Station Location Temp. Windchill Dew Point Humidity Wind Precip. Elev Updated Type
                   

Watches & Warnings

There are currently no watches in effect.